createdAt,value
2023-04-16T00:02:07.680Z,10.00
2023-04-16T00:06:10.939Z,10.10
2023-04-16T00:10:12.093Z,10.20
2023-04-16T00:14:13.539Z,9.70
2023-04-16T00:18:14.534Z,9.70
2023-04-16T00:22:18.457Z,10.10
2023-04-16T00:26:19.860Z,10.20
2023-04-16T00:30:22.278Z,9.40
2023-04-16T00:34:23.444Z,10.20
2023-04-16T00:38:24.583Z,10.50
2023-04-16T00:42:25.834Z,10.70
2023-04-16T00:46:27.493Z,10.20
2023-04-16T00:50:29.153Z,10.20
2023-04-16T00:54:31.661Z,10.10
2023-04-16T00:58:34.312Z,9.60
2023-04-16T01:02:36.117Z,10.40
2023-04-16T01:06:37.129Z,10.30
2023-04-16T01:10:38.286Z,10.10
2023-04-16T01:14:39.531Z,10.40
2023-04-16T01:18:40.702Z,10.10
2023-04-16T01:22:41.940Z,10.10
2023-04-16T01:26:43.041Z,10.40
2023-04-16T01:30:44.100Z,9.40
2023-04-16T01:34:45.216Z,10.00
2023-04-16T01:38:46.478Z,10.70
2023-04-16T01:42:47.583Z,9.80
2023-04-16T01:46:48.734Z,10.00
2023-04-16T01:50:50.017Z,10.20
2023-04-16T01:54:51.121Z,10.50
2023-04-16T01:58:52.485Z,10.70
2023-04-16T02:02:54.114Z,10.40
2023-04-16T02:06:55.385Z,10.80
2023-04-16T02:10:56.736Z,10.40
2023-04-16T02:14:58.028Z,10.10
2023-04-16T02:18:59.102Z,10.00
2023-04-16T02:23:00.279Z,9.40
2023-04-16T02:27:02.054Z,10.10
2023-04-16T02:31:03.145Z,10.40
2023-04-16T02:35:05.130Z,10.10
2023-04-16T02:39:06.207Z,10.00
2023-04-16T02:43:07.152Z,10.00
2023-04-16T02:47:08.464Z,10.60
2023-04-16T02:51:09.674Z,10.50
2023-04-16T02:55:10.993Z,10.10
2023-04-16T02:59:11.985Z,10.90
2023-04-16T03:03:13.422Z,10.30
2023-04-16T03:07:20.089Z,10.10
2023-04-16T03:11:21.411Z,10.80
2023-04-16T03:15:22.391Z,10.70
2023-04-16T03:19:23.653Z,10.20
2023-04-16T03:23:24.609Z,10.20
2023-04-16T03:27:25.733Z,10.00
2023-04-16T03:31:27.553Z,9.90
2023-04-16T03:35:28.716Z,9.70
2023-04-16T03:39:29.896Z,9.90
2023-04-16T03:43:31.085Z,9.70
2023-04-16T03:47:32.228Z,10.30
2023-04-16T03:51:33.176Z,10.20
2023-04-16T03:55:35.523Z,9.60
2023-04-16T03:59:36.530Z,9.60
2023-04-16T04:03:38.026Z,10.80
2023-04-16T04:07:39.339Z,10.40
2023-04-16T04:11:40.896Z,10.50
2023-04-16T04:15:42.041Z,11.00
2023-04-16T04:19:54.277Z,10.70
2023-04-16T04:23:46.083Z,10.90
2023-04-16T04:27:47.456Z,11.30
2023-04-16T04:31:48.746Z,11.50
2023-04-16T04:35:50.167Z,10.60
2023-04-16T04:39:51.286Z,11.50
2023-04-16T04:43:52.399Z,10.90
2023-04-16T04:47:53.523Z,11.90
2023-04-16T04:51:54.478Z,11.60
2023-04-16T04:55:58.786Z,12.00
2023-04-16T04:59:58.532Z,11.80
2023-04-16T05:03:59.793Z,11.60
2023-04-16T05:08:00.724Z,12.10
2023-04-16T05:12:02.177Z,11.80
2023-04-16T05:16:03.557Z,11.80
2023-04-16T05:20:05.973Z,10.70
2023-04-16T05:24:07.079Z,11.00
2023-04-16T05:28:08.042Z,10.90
2023-04-16T05:32:09.197Z,11.10
2023-04-16T05:36:10.189Z,11.20
2023-04-16T05:40:13.931Z,10.90
2023-04-16T05:44:15.421Z,11.40
2023-04-16T05:48:16.545Z,11.40
2023-04-16T05:52:17.485Z,11.00
2023-04-16T05:56:18.725Z,10.50
2023-04-16T06:00:20.242Z,10.70
2023-04-16T06:04:21.307Z,9.60
2023-04-16T06:08:22.511Z,9.80
2023-04-16T06:12:23.629Z,10.10
2023-04-16T06:16:24.797Z,10.30
2023-04-16T06:20:25.896Z,9.90
2023-04-16T06:24:27.061Z,10.00
2023-04-16T06:28:28.182Z,9.30
2023-04-16T06:32:29.745Z,10.00
2023-04-16T06:36:30.814Z,10.20
2023-04-16T06:40:32.045Z,10.10
2023-04-16T06:44:33.406Z,10.50
2023-04-16T06:48:34.412Z,9.90
2023-04-16T06:52:35.506Z,10.30
2023-04-16T06:56:36.801Z,10.30
2023-04-16T07:00:37.867Z,9.40
2023-04-16T07:04:46.084Z,9.90
2023-04-16T07:08:47.257Z,10.10
2023-04-16T07:12:48.474Z,9.70
2023-04-16T07:16:49.776Z,9.80
2023-04-16T07:20:50.832Z,9.90
2023-04-16T07:24:51.977Z,10.20
2023-04-16T07:28:53.049Z,9.80
2023-04-16T07:32:55.215Z,9.70
2023-04-16T07:36:56.337Z,9.50
2023-04-16T07:40:57.529Z,10.20
2023-04-16T07:44:58.504Z,9.90
2023-04-16T07:48:59.585Z,10.10
2023-04-16T07:53:00.770Z,9.70
2023-04-16T07:57:01.725Z,9.90
2023-04-16T08:01:02.867Z,9.80
2023-04-16T08:05:04.320Z,10.50
2023-04-16T08:09:05.660Z,11.20
2023-04-16T08:13:06.748Z,10.60
2023-04-16T08:17:08.617Z,10.50
2023-04-16T08:21:09.715Z,10.10
2023-04-16T08:25:11.369Z,10.70
2023-04-16T08:29:12.574Z,11.10
2023-04-16T08:33:13.935Z,11.50
2023-04-16T08:37:15.106Z,11.00
2023-04-16T08:41:16.289Z,11.30
2023-04-16T08:45:18.227Z,11.80
2023-04-16T08:49:19.290Z,11.50
2023-04-16T08:53:24.191Z,11.90
2023-04-16T08:57:29.116Z,11.60
2023-04-16T09:01:32.209Z,12.20
2023-04-16T09:05:34.425Z,11.50
2023-04-16T09:09:38.445Z,11.30
2023-04-16T09:13:39.748Z,10.80
2023-04-16T09:17:40.797Z,11.60
2023-04-16T09:21:44.426Z,11.40
2023-04-16T09:25:45.683Z,11.20
2023-04-16T09:29:46.688Z,11.30
2023-04-16T09:34:05.553Z,11.80
2023-04-16T09:38:06.592Z,11.80
2023-04-16T09:42:07.684Z,12.10
2023-04-16T09:46:12.333Z,12.20
2023-04-16T09:50:18.988Z,12.40
2023-04-16T09:54:20.388Z,11.90
2023-04-16T09:58:23.847Z,11.70
2023-04-16T10:02:28.930Z,12.30
2023-04-16T10:06:30.513Z,12.10
2023-04-16T10:10:31.802Z,11.80
2023-04-16T10:14:36.013Z,11.50
2023-04-16T10:18:41.796Z,12.30
2023-04-16T10:22:42.956Z,12.30
2023-04-16T10:26:44.814Z,11.90
2023-04-16T10:30:52.813Z,12.10
2023-04-16T10:34:55.268Z,12.80
2023-04-16T10:38:57.875Z,12.40
2023-04-16T10:43:02.688Z,12.30
2023-04-16T10:47:12.482Z,11.30
2023-04-16T10:51:27.299Z,11.50
2023-04-16T10:55:28.398Z,12.50
2023-04-16T10:59:35.155Z,13.10
2023-04-16T11:03:36.635Z,12.90
2023-04-16T11:07:41.718Z,13.60
2023-04-16T11:11:42.945Z,13.10
2023-04-16T11:15:44.044Z,13.40
2023-04-16T11:19:45.480Z,13.20
2023-04-16T11:23:50.896Z,13.10
2023-04-16T11:27:52.938Z,13.00
2023-04-16T11:31:54.741Z,12.40
2023-04-16T11:35:58.393Z,12.30
2023-04-16T11:39:59.695Z,13.30
2023-04-16T11:44:04.693Z,13.30
2023-04-16T11:48:06.198Z,11.90
2023-04-16T11:52:07.435Z,11.70
2023-04-16T11:56:08.607Z,11.20
2023-04-16T12:00:12.235Z,11.10
2023-04-16T12:04:15.892Z,11.90
2023-04-16T12:08:29.669Z,12.10
2023-04-16T12:12:32.049Z,12.40
2023-04-16T12:16:35.815Z,12.90
2023-04-16T12:20:43.371Z,12.10
2023-04-16T12:24:44.686Z,11.60
2023-04-16T12:28:46.076Z,12.10
2023-04-16T12:32:49.262Z,12.60
2023-04-16T12:37:06.242Z,12.40
2023-04-16T12:41:07.374Z,11.60
2023-04-16T12:45:08.654Z,11.70
2023-04-16T12:49:11.027Z,12.70
2023-04-16T12:53:12.300Z,12.30
2023-04-16T12:57:13.368Z,13.10
2023-04-16T13:01:14.582Z,12.90
2023-04-16T13:05:15.968Z,12.30
2023-04-16T13:09:17.648Z,13.50
2023-04-16T13:13:18.788Z,13.90
2023-04-16T13:17:19.968Z,14.20
2023-04-16T13:21:22.336Z,14.10
2023-04-16T13:25:23.456Z,13.00
2023-04-16T13:29:24.740Z,12.70
2023-04-16T13:33:26.275Z,13.30
2023-04-16T13:37:27.406Z,12.90
2023-04-16T13:41:28.395Z,12.50
2023-04-16T13:45:29.617Z,12.30
2023-04-16T13:49:33.743Z,12.30
2023-04-16T13:53:35.504Z,12.20
2023-04-16T13:57:36.489Z,12.30
2023-04-16T14:01:38.041Z,12.20
2023-04-16T14:05:39.279Z,12.80
2023-04-16T14:09:40.608Z,13.00
2023-04-16T14:13:41.821Z,12.70
2023-04-16T14:17:43.468Z,12.30
2023-04-16T14:21:44.575Z,12.50
2023-04-16T14:25:45.584Z,13.50
2023-04-16T14:29:46.650Z,12.40
2023-04-16T14:33:47.679Z,12.30
2023-04-16T14:37:49.962Z,12.60
2023-04-16T14:41:51.097Z,13.10
2023-04-16T14:45:52.843Z,12.40
2023-04-16T14:49:53.965Z,13.20
2023-04-16T14:53:55.985Z,12.60
2023-04-16T14:57:57.622Z,12.90
2023-04-16T15:01:58.912Z,12.40
2023-04-16T15:06:00.337Z,12.40
2023-04-16T15:10:02.161Z,12.30
2023-04-16T15:14:03.186Z,12.50
2023-04-16T15:18:05.383Z,12.60
2023-04-16T15:22:06.478Z,12.50
2023-04-16T15:26:07.530Z,11.70
2023-04-16T15:30:09.463Z,11.80
2023-04-16T15:34:11.156Z,11.90
2023-04-16T15:38:12.604Z,11.80
2023-04-16T15:42:13.718Z,12.10
2023-04-16T15:46:15.012Z,11.90
2023-04-16T15:50:19.659Z,12.60
2023-04-16T15:54:20.898Z,13.00
2023-04-16T15:58:22.474Z,12.40
2023-04-16T16:02:23.598Z,12.50
2023-04-16T16:06:26.543Z,12.30
2023-04-16T16:10:27.651Z,12.30
2023-04-16T16:14:28.744Z,11.40
2023-04-16T16:18:30.005Z,11.70
2023-04-16T16:22:31.025Z,12.50
2023-04-16T16:26:32.032Z,12.10
2023-04-16T16:30:33.251Z,12.00
2023-04-16T16:34:34.212Z,11.50
2023-04-16T16:38:35.236Z,11.40
2023-04-16T16:42:36.438Z,11.40
2023-04-16T16:46:37.721Z,11.40
2023-04-16T16:50:38.773Z,11.70
2023-04-16T16:54:40.164Z,11.70
2023-04-16T16:58:41.405Z,11.70
2023-04-16T17:02:43.051Z,11.40
2023-04-16T17:06:44.277Z,11.80
2023-04-16T17:10:45.240Z,12.20
2023-04-16T17:14:50.269Z,11.90
2023-04-16T17:18:51.305Z,12.00
2023-04-16T17:22:52.246Z,11.70
2023-04-16T17:31:03.091Z,11.60
2023-04-16T17:35:06.167Z,11.30
2023-04-16T17:39:07.279Z,12.10
2023-04-16T17:43:08.260Z,11.90
2023-04-16T17:47:09.387Z,12.60
2023-04-16T17:51:15.725Z,12.00
2023-04-16T17:55:16.746Z,11.40
2023-04-16T17:59:18.234Z,11.70
2023-04-16T18:03:21.791Z,12.10
2023-04-16T18:07:22.120Z,12.10
2023-04-16T18:11:23.453Z,12.30
2023-04-16T18:15:24.628Z,12.50
2023-04-16T18:19:25.811Z,12.00
2023-04-16T18:23:27.511Z,11.90
2023-04-16T18:27:28.893Z,12.30
2023-04-16T18:31:30.117Z,12.50
2023-04-16T18:35:31.209Z,12.70
2023-04-16T18:39:33.271Z,12.00
2023-04-16T18:43:34.254Z,12.10
2023-04-16T18:47:35.674Z,12.10
2023-04-16T18:51:36.787Z,12.00
2023-04-16T18:55:37.745Z,12.30
2023-04-16T18:59:38.719Z,11.70
2023-04-16T19:03:40.010Z,11.80
2023-04-16T19:07:41.187Z,11.00
2023-04-16T19:11:42.713Z,12.00
2023-04-16T19:15:43.761Z,12.50
2023-04-16T19:19:45.259Z,11.60
2023-04-16T19:23:46.366Z,11.60
2023-04-16T19:27:47.502Z,11.30
2023-04-16T19:31:48.708Z,10.90
2023-04-16T19:35:49.768Z,10.50
2023-04-16T19:39:50.714Z,10.00
2023-04-16T19:43:54.123Z,10.10
2023-04-16T19:47:56.329Z,10.00
2023-04-16T19:51:57.505Z,10.70
2023-04-16T19:55:58.448Z,10.60
2023-04-16T19:59:59.554Z,11.10
2023-04-16T20:04:00.787Z,10.60
2023-04-16T20:08:01.974Z,10.50
2023-04-16T20:12:03.390Z,10.00
2023-04-16T20:16:05.142Z,10.00
2023-04-16T20:20:09.249Z,9.80
2023-04-16T20:24:12.496Z,9.70
2023-04-16T20:28:15.549Z,9.80
2023-04-16T20:32:16.799Z,9.90
2023-04-16T20:36:17.985Z,10.60
2023-04-16T20:40:20.521Z,9.70
2023-04-16T20:44:25.356Z,9.90
2023-04-16T20:48:26.387Z,9.70
2023-04-16T20:52:27.739Z,10.20
2023-04-16T20:56:29.038Z,10.30
2023-04-16T21:00:30.075Z,9.90
2023-04-16T21:04:31.318Z,9.70
2023-04-16T21:08:32.689Z,10.10
2023-04-16T21:12:33.694Z,10.10
2023-04-16T21:16:34.882Z,9.80
2023-04-16T21:20:36.885Z,10.10
2023-04-16T21:24:38.016Z,10.40
2023-04-16T21:28:39.279Z,10.20
2023-04-16T21:32:40.299Z,10.10
2023-04-16T21:36:41.341Z,9.80
2023-04-16T21:40:42.461Z,9.90
2023-04-16T21:44:43.498Z,9.90
2023-04-16T21:48:44.962Z,10.10
2023-04-16T21:52:46.155Z,9.90
2023-04-16T21:56:47.223Z,9.90
2023-04-16T22:00:48.367Z,10.70
2023-04-16T22:04:49.993Z,11.00
2023-04-16T22:08:51.120Z,10.50
2023-04-16T22:12:54.209Z,10.40
2023-04-16T22:16:55.780Z,11.00
2023-04-16T22:20:57.174Z,10.40
2023-04-16T22:24:58.533Z,10.60
2023-04-16T22:29:00.014Z,10.10
2023-04-16T22:33:03.079Z,11.00
2023-04-16T22:37:04.235Z,10.50
2023-04-16T22:41:05.232Z,10.30
2023-04-16T22:45:07.830Z,10.70
2023-04-16T22:49:09.153Z,10.70
2023-04-16T22:53:10.466Z,10.50
2023-04-16T22:57:11.519Z,10.40
2023-04-16T23:01:12.476Z,9.70
2023-04-16T23:05:13.913Z,10.50
2023-04-16T23:09:15.063Z,10.30
2023-04-16T23:13:15.995Z,11.40
2023-04-16T23:17:17.148Z,10.90
2023-04-16T23:21:18.257Z,10.80
2023-04-16T23:25:19.424Z,10.90
2023-04-16T23:29:20.602Z,11.70
2023-04-16T23:33:22.066Z,11.20
2023-04-16T23:37:23.979Z,11.50
2023-04-16T23:41:25.299Z,10.80
2023-04-16T23:45:26.419Z,10.70
2023-04-16T23:49:27.556Z,11.00
2023-04-16T23:53:28.728Z,11.10
2023-04-16T23:57:29.900Z,11.00
